Terminal Aerodrome Forecast
Issued by NWS

Home | Current Version | Previous Version | Text Only | Print | Product List | Glossary On
Versions: 1 2 3 4 5 6 7 8 9 10 11 12
000
FTUS45 KRIW 202328
TAFRKS
TAF
KRKS 202328Z 2100/2124 18010KT P6SM BKN110
     FM210300 21012KT P6SM BKN080
     FM210900 22017G27KT P6SM BKN050=

USA.gov is the U.S. government's official web portal to all federal, state and local government web resources and services.